PWSweather.com
Personal Weather Stations
Station Observations
SBERGENWX
Wood Ridge, NJ 07075

Wood Ridge, NJ 07075

Lat: 40.851667, Lon: -74.088131

Elevation: 177

Station Type: Davis Vantage Vue

http://201weather.com/

High Low Average
Temperature 31.5°F-0.3°C 16.4°F-8.7°C 23.6°F-4.7°C
Dew Point 14.2°F-9.9°C 8.6°F-13.0°C 11.7°F-11.3°C
Winds 4.6 mph 7.4 kmh Calm Calm 1.0 mph SSE1.6 kmh SSE
Wind Gusts 11.5 mph18.5 kmh -- 2.0 mph3.2 kmh
Humidity 73% 45% 61%
Pressure 30.30 in1026.1 mb 30.14 in1020.7 mb -
Precipitation 0.00 in0.0 mm - -
Hour Temp Dew Point Humidity Winds Wind Gusts Pressure Precip Precip Rate Daily Precip Total
12:00 AM 22.8°F-5.1°C 11.0°F-11.7°C 60% 1.2 mph N1.9 kmh N 3.5 mph5.6 kmh 30.31 in1026.4 mb - 0.00 in0.0 mm 0.00 in0.0 mm
12:15 AM 22.6°F-5.2°C 10.8°F-11.8°C 60% 1.2 mph NNE1.9 kmh NNE 3.5 mph5.6 kmh 30.31 in1026.4 mb - 0.00 in0.0 mm 0.00 in0.0 mm
12:30 AM 22.5°F-5.3°C 11.0°F-11.7°C 61% Calm Calm 2.3 mph3.7 kmh 30.31 in1026.4 mb - 0.00 in0.0 mm 0.00 in0.0 mm
12:45 AM 22.3°F-5.4°C 10.9°F-11.7°C 61% 1.2 mph N1.9 kmh N 2.3 mph3.7 kmh 30.30 in1026.1 mb - 0.00 in0.0 mm 0.00 in0.0 mm
01:00 AM 22.1°F-5.5°C 10.7°F-11.8°C 61% Calm Calm 2.3 mph3.7 kmh 30.29 in1025.7 mb - 0.00 in0.0 mm 0.00 in0.0 mm
01:15 AM 21.8°F-5.7°C 10.4°F-12.0°C 61% Calm Calm 3.5 mph5.6 kmh 30.29 in1025.7 mb - 0.00 in0.0 mm 0.00 in0.0 mm
01:30 AM 21.5°F-5.8°C 10.4°F-12.0°C 62% 2.3 mph N3.7 kmh N 5.8 mph9.3 kmh 30.29 in1025.7 mb - 0.00 in0.0 mm 0.00 in0.0 mm
01:45 AM 21.2°F-6.0°C 9.8°F-12.3°C 61% 2.3 mph N3.7 kmh N 8.1 mph13.0 kmh 30.28 in1025.4 mb - 0.00 in0.0 mm 0.00 in0.0 mm
02:00 AM 20.9°F-6.2°C 9.9°F-12.3°C 62% 2.3 mph N3.7 kmh N 11.5 mph18.5 kmh 30.28 in1025.4 mb - 0.00 in0.0 mm 0.00 in0.0 mm
02:15 AM 20.7°F-6.3°C 10.1°F-12.2°C 63% Calm Calm 2.3 mph3.7 kmh 30.28 in1025.4 mb - 0.00 in0.0 mm 0.00 in0.0 mm
02:30 AM 20.5°F-6.4°C 9.9°F-12.3°C 63% Calm Calm 1.2 mph1.9 kmh 30.29 in1025.7 mb - 0.00 in0.0 mm 0.00 in0.0 mm
02:45 AM 20.4°F-6.4°C 10.1°F-12.2°C 64% Calm Calm -- 30.29 in1025.7 mb - 0.00 in0.0 mm 0.00 in0.0 mm
03:00 AM 20.2°F-6.6°C 10.0°F-12.2°C 64% Calm Calm 3.5 mph5.6 kmh 30.29 in1025.7 mb - 0.00 in0.0 mm 0.00 in0.0 mm
03:15 AM 20.0°F-6.7°C 10.1°F-12.2°C 65% 1.2 mph NNE1.9 kmh NNE 2.3 mph3.7 kmh 30.30 in1026.1 mb - 0.00 in0.0 mm 0.00 in0.0 mm
03:30 AM 19.8°F-6.8°C 10.3°F-12.1°C 66% 2.3 mph N3.7 kmh N 5.8 mph9.3 kmh 30.30 in1026.1 mb - 0.00 in0.0 mm 0.00 in0.0 mm
03:45 AM 19.5°F-6.9°C 9.9°F-12.3°C 66% 1.2 mph NNE1.9 kmh NNE 4.6 mph7.4 kmh 30.30 in1026.1 mb - 0.00 in0.0 mm 0.00 in0.0 mm
04:00 AM 19.2°F-7.1°C 10.0°F-12.2°C 67% Calm Calm 2.3 mph3.7 kmh 30.30 in1026.1 mb - 0.00 in0.0 mm 0.00 in0.0 mm
04:15 AM 19.0°F-7.2°C 9.8°F-12.3°C 67% 1.2 mph N1.9 kmh N 3.5 mph5.6 kmh 30.30 in1026.1 mb - 0.00 in0.0 mm 0.00 in0.0 mm
04:30 AM 18.8°F-7.3°C 10.0°F-12.2°C 68% 1.2 mph NNE1.9 kmh NNE 2.3 mph3.7 kmh 30.30 in1026.1 mb - 0.00 in0.0 mm 0.00 in0.0 mm
04:45 AM 18.9°F-7.3°C 9.8°F-12.3°C 67% 3.5 mph N5.6 kmh N 4.6 mph7.4 kmh 30.29 in1025.7 mb - 0.00 in0.0 mm 0.00 in0.0 mm
05:00 AM 19.2°F-7.1°C 10.0°F-12.2°C 67% 2.3 mph N3.7 kmh N 6.9 mph11.1 kmh 30.29 in1025.7 mb - 0.00 in0.0 mm 0.00 in0.0 mm
05:15 AM 19.2°F-7.1°C 9.7°F-12.4°C 66% 2.3 mph N3.7 kmh N 3.5 mph5.6 kmh 30.28 in1025.4 mb - 0.00 in0.0 mm 0.00 in0.0 mm
05:30 AM 19.2°F-7.1°C 9.7°F-12.4°C 66% 3.5 mph 5.6 kmh 6.9 mph11.1 kmh 30.28 in1025.4 mb - 0.00 in0.0 mm 0.00 in0.0 mm
05:45 AM 19.2°F-7.1°C 10.0°F-12.2°C 67% 1.2 mph NNE1.9 kmh NNE 4.6 mph7.4 kmh 30.27 in1025.1 mb - 0.00 in0.0 mm 0.00 in0.0 mm
06:00 AM 19.3°F-7.1°C 10.1°F-12.2°C 67% 3.5 mph NNE5.6 kmh NNE 3.5 mph5.6 kmh 30.27 in1025.1 mb - 0.00 in0.0 mm 0.00 in0.0 mm
06:15 AM 19.3°F-7.1°C 10.8°F-11.8°C 69% 2.3 mph N3.7 kmh N 4.6 mph7.4 kmh 30.26 in1024.7 mb - 0.00 in0.0 mm 0.00 in0.0 mm
06:30 AM 19.2°F-7.1°C 11.3°F-11.5°C 71% 2.3 mph NNW3.7 kmh NNW 5.8 mph9.3 kmh 30.26 in1024.7 mb - 0.00 in0.0 mm 0.00 in0.0 mm
06:45 AM 19.0°F-7.2°C 11.1°F-11.6°C 71% 4.6 mph N7.4 kmh N 11.5 mph18.5 kmh 30.26 in1024.7 mb - 0.00 in0.0 mm 0.00 in0.0 mm
07:00 AM 18.8°F-7.3°C 10.9°F-11.7°C 71% 1.2 mph N1.9 kmh N 3.5 mph5.6 kmh 30.27 in1025.1 mb - 0.00 in0.0 mm 0.00 in0.0 mm
07:15 AM 18.5°F-7.5°C 10.3°F-12.1°C 70% 2.3 mph N3.7 kmh N 6.9 mph11.1 kmh 30.27 in1025.1 mb - 0.00 in0.0 mm 0.00 in0.0 mm
07:30 AM 18.4°F-7.6°C 10.6°F-11.9°C 71% 2.3 mph N3.7 kmh N 3.5 mph5.6 kmh 30.27 in1025.1 mb - 0.00 in0.0 mm 0.00 in0.0 mm
07:45 AM 18.5°F-7.5°C 11.0°F-11.7°C 72% 2.3 mph N3.7 kmh N 6.9 mph11.1 kmh 30.27 in1025.1 mb - 0.00 in0.0 mm 0.00 in0.0 mm
08:00 AM 18.6°F-7.4°C 11.4°F-11.4°C 73% 3.5 mph N5.6 kmh N 6.9 mph11.1 kmh 30.28 in1025.4 mb - 0.00 in0.0 mm 0.00 in0.0 mm
08:15 AM 18.4°F-7.6°C 11.2°F-11.6°C 73% 2.3 mph N3.7 kmh N 8.1 mph13.0 kmh 30.28 in1025.4 mb - 0.00 in0.0 mm 0.00 in0.0 mm
08:30 AM 17.8°F-7.9°C 10.3°F-12.1°C 72% 3.5 mph N5.6 kmh N 5.8 mph9.3 kmh 30.28 in1025.4 mb - 0.00 in0.0 mm 0.00 in0.0 mm
08:45 AM 17.3°F-8.2°C 9.5°F-12.5°C 71% 2.3 mph NW3.7 kmh NW 3.5 mph5.6 kmh 30.28 in1025.4 mb - 0.00 in0.0 mm 0.00 in0.0 mm
09:00 AM 16.9°F-8.4°C 9.1°F-12.7°C 71% 1.2 mph N1.9 kmh N 4.6 mph7.4 kmh 30.29 in1025.7 mb - 0.00 in0.0 mm 0.00 in0.0 mm
09:15 AM 16.6°F-8.6°C 8.8°F-12.9°C 71% 1.2 mph NNW1.9 kmh NNW 3.5 mph5.6 kmh 30.29 in1025.7 mb - 0.00 in0.0 mm 0.00 in0.0 mm
09:30 AM 16.4°F-8.7°C 8.6°F-13.0°C 71% 1.2 mph NW1.9 kmh NW 2.3 mph3.7 kmh 30.30 in1026.1 mb - 0.00 in0.0 mm 0.00 in0.0 mm
09:45 AM 16.4°F-8.7°C 8.6°F-13.0°C 71% 1.2 mph N1.9 kmh N 3.5 mph5.6 kmh 30.30 in1026.1 mb - 0.00 in0.0 mm 0.00 in0.0 mm
10:00 AM 16.7°F-8.5°C 8.9°F-12.8°C 71% Calm Calm 1.2 mph1.9 kmh 30.30 in1026.1 mb - 0.00 in0.0 mm 0.00 in0.0 mm
10:15 AM 17.4°F-8.1°C 9.6°F-12.4°C 71% 1.2 mph NNW1.9 kmh NNW 4.6 mph7.4 kmh 30.30 in1026.1 mb - 0.00 in0.0 mm 0.00 in0.0 mm
10:30 AM 19.0°F-7.2°C 10.8°F-11.8°C 70% 1.2 mph NNW1.9 kmh NNW 5.8 mph9.3 kmh 30.30 in1026.1 mb - 0.00 in0.0 mm 0.00 in0.0 mm
10:45 AM 20.4°F-6.4°C 11.9°F-11.2°C 69% 1.2 mph NNE1.9 kmh NNE 4.6 mph7.4 kmh 30.30 in1026.1 mb - 0.00 in0.0 mm 0.00 in0.0 mm
11:00 AM 21.3°F-5.9°C 12.4°F-10.9°C 68% Calm Calm 3.5 mph5.6 kmh 30.30 in1026.1 mb - 0.00 in0.0 mm 0.00 in0.0 mm
11:15 AM 22.7°F-5.2°C 13.7°F-10.2°C 68% Calm Calm 2.3 mph3.7 kmh 30.30 in1026.1 mb - 0.00 in0.0 mm 0.00 in0.0 mm
11:30 AM 23.0°F-5.0°C 14.0°F-10.0°C 68% 2.3 mph NNE3.7 kmh NNE 3.5 mph5.6 kmh 30.30 in1026.1 mb - 0.00 in0.0 mm 0.00 in0.0 mm
11:45 AM 23.9°F-4.5°C 14.2°F-9.9°C 66% 1.2 mph NE1.9 kmh NE 1.2 mph1.9 kmh 30.30 in1026.1 mb - 0.00 in0.0 mm 0.00 in0.0 mm
12:00 PM 24.1°F-4.4°C 14.1°F-9.9°C 65% 2.3 mph N3.7 kmh N 4.6 mph7.4 kmh 30.29 in1025.7 mb - 0.00 in0.0 mm 0.00 in0.0 mm
12:15 PM 24.7°F-4.1°C 14.2°F-9.9°C 64% 1.2 mph NNE1.9 kmh NNE 3.5 mph5.6 kmh 30.27 in1025.1 mb - 0.00 in0.0 mm 0.00 in0.0 mm
12:30 PM 25.4°F-3.7°C 14.2°F-9.9°C 62% 1.2 mph NE1.9 kmh NE 2.3 mph3.7 kmh 30.27 in1025.1 mb - 0.00 in0.0 mm 0.00 in0.0 mm
12:45 PM 25.7°F-3.5°C 14.1°F-9.9°C 61% 1.2 mph N1.9 kmh N 2.3 mph3.7 kmh 30.26 in1024.7 mb - 0.00 in0.0 mm 0.00 in0.0 mm
01:00 PM 26.0°F-3.3°C 14.0°F-10.0°C 60% Calm Calm 3.5 mph5.6 kmh 30.25 in1024.4 mb - 0.00 in0.0 mm 0.00 in0.0 mm
01:15 PM 26.2°F-3.2°C 13.8°F-10.1°C 59% Calm Calm 3.5 mph5.6 kmh 30.24 in1024.0 mb - 0.00 in0.0 mm 0.00 in0.0 mm
01:30 PM 26.9°F-2.8°C 13.7°F-10.2°C 57% Calm Calm -- 30.24 in1024.0 mb - 0.00 in0.0 mm 0.00 in0.0 mm
01:45 PM 27.1°F-2.7°C 13.5°F-10.3°C 56% Calm Calm 1.2 mph1.9 kmh 30.23 in1023.7 mb - 0.00 in0.0 mm 0.00 in0.0 mm
02:00 PM 27.7°F-2.4°C 12.7°F-10.7°C 53% 1.2 mph NNE1.9 kmh NNE 2.3 mph3.7 kmh 30.22 in1023.4 mb - 0.00 in0.0 mm 0.00 in0.0 mm
02:15 PM 27.9°F-2.3°C 13.0°F-10.6°C 53% Calm Calm 1.2 mph1.9 kmh 30.22 in1023.4 mb - 0.00 in0.0 mm 0.00 in0.0 mm
02:30 PM 28.8°F-1.8°C 12.5°F-10.8°C 50% 2.3 mph NNW3.7 kmh NNW 3.5 mph5.6 kmh 30.21 in1023.0 mb - 0.00 in0.0 mm 0.00 in0.0 mm
02:45 PM 28.9°F-1.7°C 12.5°F-10.8°C 50% Calm Calm 1.2 mph1.9 kmh 30.21 in1023.0 mb - 0.00 in0.0 mm 0.00 in0.0 mm
03:00 PM 29.7°F-1.3°C 12.8°F-10.7°C 49% Calm Calm 1.2 mph1.9 kmh 30.20 in1022.7 mb - 0.00 in0.0 mm 0.00 in0.0 mm
03:15 PM 30.4°F-0.9°C 13.0°F-10.6°C 48% Calm Calm 3.5 mph5.6 kmh 30.20 in1022.7 mb - 0.00 in0.0 mm 0.00 in0.0 mm
03:30 PM 30.6°F-0.8°C 12.2°F-11.0°C 46% Calm Calm 2.3 mph3.7 kmh 30.19 in1022.4 mb - 0.00 in0.0 mm 0.00 in0.0 mm
03:45 PM 30.8°F-0.7°C 12.4°F-10.9°C 46% Calm Calm 1.2 mph1.9 kmh 30.19 in1022.4 mb - 0.00 in0.0 mm 0.00 in0.0 mm
04:00 PM 31.5°F-0.3°C 12.6°F-10.8°C 45% Calm Calm -- 30.19 in1022.4 mb - 0.00 in0.0 mm 0.00 in0.0 mm
04:15 PM 31.3°F-0.4°C 12.4°F-10.9°C 45% Calm Calm 1.2 mph1.9 kmh 30.18 in1022.0 mb - 0.00 in0.0 mm 0.00 in0.0 mm
04:30 PM 31.2°F-0.4°C 12.8°F-10.7°C 46% Calm Calm -- 30.18 in1022.0 mb - 0.00 in0.0 mm 0.00 in0.0 mm
04:45 PM 31.2°F-0.4°C 12.8°F-10.7°C 46% Calm Calm 1.2 mph1.9 kmh 30.17 in1021.7 mb - 0.00 in0.0 mm 0.00 in0.0 mm
05:00 PM 31.1°F-0.5°C 12.2°F-11.0°C 45% Calm Calm 2.3 mph3.7 kmh 30.17 in1021.7 mb - 0.00 in0.0 mm 0.00 in0.0 mm
05:15 PM 30.8°F-0.7°C 12.4°F-10.9°C 46% Calm Calm -- 30.17 in1021.7 mb - 0.00 in0.0 mm 0.00 in0.0 mm
05:30 PM 30.6°F-0.8°C 12.2°F-11.0°C 46% Calm Calm -- 30.16 in1021.3 mb - 0.00 in0.0 mm 0.00 in0.0 mm
05:45 PM 30.2°F-1.0°C 12.4°F-10.9°C 47% Calm Calm -- 30.16 in1021.3 mb - 0.00 in0.0 mm 0.00 in0.0 mm
06:00 PM 29.9°F-1.2°C 12.0°F-11.1°C 47% Calm Calm -- 30.16 in1021.3 mb - 0.00 in0.0 mm 0.00 in0.0 mm
06:15 PM 29.2°F-1.6°C 11.9°F-11.2°C 48% Calm Calm -- 30.16 in1021.3 mb - 0.00 in0.0 mm 0.00 in0.0 mm
06:30 PM 28.6°F-1.9°C 11.4°F-11.4°C 48% Calm Calm -- 30.16 in1021.3 mb - 0.00 in0.0 mm 0.00 in0.0 mm
06:45 PM 28.2°F-2.1°C 11.5°F-11.4°C 49% Calm Calm -- 30.17 in1021.7 mb - 0.00 in0.0 mm 0.00 in0.0 mm
07:00 PM 27.9°F-2.3°C 11.6°F-11.3°C 50% Calm Calm -- 30.17 in1021.7 mb - 0.00 in0.0 mm 0.00 in0.0 mm
07:15 PM 27.5°F-2.5°C 11.7°F-11.3°C 51% Calm Calm -- 30.16 in1021.3 mb - 0.00 in0.0 mm 0.00 in0.0 mm
07:30 PM 27.3°F-2.6°C 12.0°F-11.1°C 52% Calm Calm -- 30.16 in1021.3 mb - 0.00 in0.0 mm 0.00 in0.0 mm
07:45 PM 26.8°F-2.9°C 12.4°F-10.9°C 54% Calm Calm -- 30.16 in1021.3 mb - 0.00 in0.0 mm 0.00 in0.0 mm
08:00 PM 26.5°F-3.1°C 12.5°F-10.8°C 55% Calm Calm -- 30.16 in1021.3 mb - 0.00 in0.0 mm 0.00 in0.0 mm
08:15 PM 26.2°F-3.2°C 12.2°F-11.0°C 55% Calm Calm -- 30.15 in1021.0 mb - 0.00 in0.0 mm 0.00 in0.0 mm
08:30 PM 26.1°F-3.3°C 12.6°F-10.8°C 56% Calm Calm -- 30.16 in1021.3 mb - 0.00 in0.0 mm 0.00 in0.0 mm
08:45 PM 25.7°F-3.5°C 12.6°F-10.8°C 57% Calm Calm -- 30.15 in1021.0 mb - 0.00 in0.0 mm 0.00 in0.0 mm
09:00 PM 25.3°F-3.7°C 12.2°F-11.0°C 57% Calm Calm -- 30.15 in1021.0 mb - 0.00 in0.0 mm 0.00 in0.0 mm
09:15 PM 25.1°F-3.8°C 12.4°F-10.9°C 58% Calm Calm -- 30.15 in1021.0 mb - 0.00 in0.0 mm 0.00 in0.0 mm
09:30 PM 25.2°F-3.8°C 12.5°F-10.8°C 58% Calm Calm -- 30.15 in1021.0 mb - 0.00 in0.0 mm 0.00 in0.0 mm
09:45 PM 25.1°F-3.8°C 12.7°F-10.7°C 59% Calm Calm -- 30.15 in1021.0 mb - 0.00 in0.0 mm 0.00 in0.0 mm
10:00 PM 24.9°F-3.9°C 12.6°F-10.8°C 59% Calm Calm -- 30.15 in1021.0 mb - 0.00 in0.0 mm 0.00 in0.0 mm
10:15 PM 24.7°F-4.1°C 12.8°F-10.7°C 60% Calm Calm -- 30.15 in1021.0 mb - 0.00 in0.0 mm 0.00 in0.0 mm
10:30 PM 24.5°F-4.2°C 13.0°F-10.6°C 61% Calm Calm -- 30.15 in1021.0 mb - 0.00 in0.0 mm 0.00 in0.0 mm
10:45 PM 24.4°F-4.2°C 12.9°F-10.6°C 61% Calm Calm -- 30.15 in1021.0 mb - 0.00 in0.0 mm 0.00 in0.0 mm
11:00 PM 24.3°F-4.3°C 13.1°F-10.5°C 62% Calm Calm -- 30.15 in1021.0 mb - 0.00 in0.0 mm 0.00 in0.0 mm
11:15 PM 24.1°F-4.4°C 13.3°F-10.4°C 63% Calm Calm -- 30.15 in1021.0 mb - 0.00 in0.0 mm 0.00 in0.0 mm
11:30 PM 24.0°F-4.4°C 13.2°F-10.4°C 63% Calm Calm -- 30.15 in1021.0 mb - 0.00 in0.0 mm 0.00 in0.0 mm
11:45 PM 23.9°F-4.5°C 13.1°F-10.5°C 63% Calm Calm -- 30.15 in1021.0 mb - 0.00 in0.0 mm 0.00 in0.0 mm